sensor_id;sensor_type;location;lat;lon;timestamp;temperature;humidity
12384;DHT22;6256;63.808;20.336;2024-01-30T00:01:43;3.80;99.90
12384;DHT22;6256;63.808;20.336;2024-01-30T00:04:08;3.70;99.90
12384;DHT22;6256;63.808;20.336;2024-01-30T00:06:34;3.60;99.90
12384;DHT22;6256;63.808;20.336;2024-01-30T00:08:59;3.70;99.90
12384;DHT22;6256;63.808;20.336;2024-01-30T00:11:25;3.80;99.90
12384;DHT22;6256;63.808;20.336;2024-01-30T00:13:52;3.70;99.90
12384;DHT22;6256;63.808;20.336;2024-01-30T00:16:21;3.70;99.90
12384;DHT22;6256;63.808;20.336;2024-01-30T00:18:48;3.70;99.90
12384;DHT22;6256;63.808;20.336;2024-01-30T00:21:13;3.60;99.90
12384;DHT22;6256;63.808;20.336;2024-01-30T00:23:39;3.60;99.90
12384;DHT22;6256;63.808;20.336;2024-01-30T00:26:05;3.60;99.90
12384;DHT22;6256;63.808;20.336;2024-01-30T00:28:31;3.60;99.90
12384;DHT22;6256;63.808;20.336;2024-01-30T00:30:57;3.60;99.90
12384;DHT22;6256;63.808;20.336;2024-01-30T00:33:22;3.60;99.90
12384;DHT22;6256;63.808;20.336;2024-01-30T00:35:48;3.60;99.90
12384;DHT22;6256;63.808;20.336;2024-01-30T00:38:14;3.60;99.90
12384;DHT22;6256;63.808;20.336;2024-01-30T00:40:39;3.50;99.90
12384;DHT22;6256;63.808;20.336;2024-01-30T00:43:05;3.50;99.90
12384;DHT22;6256;63.808;20.336;2024-01-30T00:45:31;3.40;99.90
12384;DHT22;6256;63.808;20.336;2024-01-30T00:47:56;3.50;99.90
12384;DHT22;6256;63.808;20.336;2024-01-30T00:50:22;3.50;99.90
12384;DHT22;6256;63.808;20.336;2024-01-30T00:52:48;3.50;99.90
12384;DHT22;6256;63.808;20.336;2024-01-30T00:55:13;3.50;99.90
12384;DHT22;6256;63.808;20.336;2024-01-30T00:57:40;3.50;99.90
12384;DHT22;6256;63.808;20.336;2024-01-30T01:00:06;3.30;99.90
12384;DHT22;6256;63.808;20.336;2024-01-30T01:02:35;3.30;99.90
12384;DHT22;6256;63.808;20.336;2024-01-30T01:05:01;3.30;99.90
12384;DHT22;6256;63.808;20.336;2024-01-30T01:07:27;3.30;99.90
12384;DHT22;6256;63.808;20.336;2024-01-30T01:09:53;3.30;99.90
12384;DHT22;6256;63.808;20.336;2024-01-30T01:12:19;3.30;99.90
12384;DHT22;6256;63.808;20.336;2024-01-30T01:14:44;3.20;99.90
12384;DHT22;6256;63.808;20.336;2024-01-30T01:17:10;3.30;99.90
12384;DHT22;6256;63.808;20.336;2024-01-30T01:19:36;3.50;99.90
12384;DHT22;6256;63.808;20.336;2024-01-30T01:22:02;3.40;99.90
12384;DHT22;6256;63.808;20.336;2024-01-30T01:24:30;3.30;99.90
12384;DHT22;6256;63.808;20.336;2024-01-30T01:26:57;3.20;99.90
12384;DHT22;6256;63.808;20.336;2024-01-30T01:29:23;3.20;99.90
12384;DHT22;6256;63.808;20.336;2024-01-30T01:31:57;3.30;99.90
12384;DHT22;6256;63.808;20.336;2024-01-30T01:34:23;3.30;99.90
12384;DHT22;6256;63.808;20.336;2024-01-30T01:36:51;3.10;99.90
12384;DHT22;6256;63.808;20.336;2024-01-30T01:39:21;3.10;99.90
12384;DHT22;6256;63.808;20.336;2024-01-30T01:41:48;3.00;99.90
12384;DHT22;6256;63.808;20.336;2024-01-30T01:44:14;3.10;99.90
12384;DHT22;6256;63.808;20.336;2024-01-30T01:46:40;3.00;99.90
12384;DHT22;6256;63.808;20.336;2024-01-30T01:49:05;2.80;99.90
12384;DHT22;6256;63.808;20.336;2024-01-30T01:51:34;2.80;99.90
12384;DHT22;6256;63.808;20.336;2024-01-30T01:54:04;2.80;99.90
12384;DHT22;6256;63.808;20.336;2024-01-30T01:56:31;2.80;99.90
12384;DHT22;6256;63.808;20.336;2024-01-30T01:59:00;2.80;99.90
12384;DHT22;6256;63.808;20.336;2024-01-30T02:01:29;2.80;99.90
12384;DHT22;6256;63.808;20.336;2024-01-30T02:03:55;2.80;99.90
12384;DHT22;6256;63.808;20.336;2024-01-30T02:06:21;2.90;99.90
12384;DHT22;6256;63.808;20.336;2024-01-30T02:08:47;2.90;99.90
12384;DHT22;6256;63.808;20.336;2024-01-30T02:11:12;2.90;99.90
12384;DHT22;6256;63.808;20.336;2024-01-30T02:13:38;2.90;99.90
12384;DHT22;6256;63.808;20.336;2024-01-30T02:16:04;2.80;99.90
12384;DHT22;6256;63.808;20.336;2024-01-30T02:18:30;2.80;99.90
12384;DHT22;6256;63.808;20.336;2024-01-30T02:20:56;2.80;99.90
12384;DHT22;6256;63.808;20.336;2024-01-30T02:23:24;2.70;99.90
12384;DHT22;6256;63.808;20.336;2024-01-30T02:25:53;2.60;99.90
12384;DHT22;6256;63.808;20.336;2024-01-30T02:28:20;2.40;99.90
12384;DHT22;6256;63.808;20.336;2024-01-30T02:30:46;2.30;99.90
12384;DHT22;6256;63.808;20.336;2024-01-30T02:33:12;2.30;99.90
12384;DHT22;6256;63.808;20.336;2024-01-30T02:35:38;2.20;99.90
12384;DHT22;6256;63.808;20.336;2024-01-30T02:38:04;2.20;99.90
12384;DHT22;6256;63.808;20.336;2024-01-30T02:40:30;2.10;99.90
12384;DHT22;6256;63.808;20.336;2024-01-30T02:42:56;2.10;99.90
12384;DHT22;6256;63.808;20.336;2024-01-30T02:45:21;2.00;99.90
12384;DHT22;6256;63.808;20.336;2024-01-30T02:47:47;2.00;99.90
12384;DHT22;6256;63.808;20.336;2024-01-30T02:50:13;2.00;99.90
12384;DHT22;6256;63.808;20.336;2024-01-30T02:52:40;1.90;99.90
12384;DHT22;6256;63.808;20.336;2024-01-30T02:55:06;1.90;99.90
12384;DHT22;6256;63.808;20.336;2024-01-30T02:57:32;1.90;99.90
12384;DHT22;6256;63.808;20.336;2024-01-30T02:59:58;1.90;99.90
12384;DHT22;6256;63.808;20.336;2024-01-30T03:02:23;2.00;99.90
12384;DHT22;6256;63.808;20.336;2024-01-30T03:04:49;1.90;99.90
12384;DHT22;6256;63.808;20.336;2024-01-30T03:07:15;1.90;99.90
12384;DHT22;6256;63.808;20.336;2024-01-30T03:09:42;1.90;99.90
12384;DHT22;6256;63.808;20.336;2024-01-30T03:12:10;1.90;99.90
12384;DHT22;6256;63.808;20.336;2024-01-30T03:14:36;2.00;99.90
12384;DHT22;6256;63.808;20.336;2024-01-30T03:17:02;1.90;99.90
12384;DHT22;6256;63.808;20.336;2024-01-30T03:19:28;1.90;99.90
12384;DHT22;6256;63.808;20.336;2024-01-30T03:21:54;1.80;99.90
12384;DHT22;6256;63.808;20.336;2024-01-30T03:24:19;1.70;99.90
12384;DHT22;6256;63.808;20.336;2024-01-30T03:26:45;1.60;99.90
12384;DHT22;6256;63.808;20.336;2024-01-30T03:29:11;1.50;99.90
12384;DHT22;6256;63.808;20.336;2024-01-30T03:31:36;1.50;99.90
12384;DHT22;6256;63.808;20.336;2024-01-30T03:34:02;1.50;99.90
12384;DHT22;6256;63.808;20.336;2024-01-30T03:36:28;1.50;99.90
12384;DHT22;6256;63.808;20.336;2024-01-30T03:38:54;1.50;99.90
12384;DHT22;6256;63.808;20.336;2024-01-30T03:41:19;1.50;99.90
12384;DHT22;6256;63.808;20.336;2024-01-30T03:43:46;1.50;99.90
12384;DHT22;6256;63.808;20.336;2024-01-30T03:46:12;1.40;99.90
12384;DHT22;6256;63.808;20.336;2024-01-30T03:48:38;1.50;99.90
12384;DHT22;6256;63.808;20.336;2024-01-30T03:51:04;1.60;99.90
12384;DHT22;6256;63.808;20.336;2024-01-30T03:53:30;1.60;99.90
12384;DHT22;6256;63.808;20.336;2024-01-30T03:55:56;1.70;99.90
12384;DHT22;6256;63.808;20.336;2024-01-30T03:58:22;1.70;99.90
12384;DHT22;6256;63.808;20.336;2024-01-30T04:00:48;1.70;99.90
12384;DHT22;6256;63.808;20.336;2024-01-30T04:03:14;1.70;99.90
12384;DHT22;6256;63.808;20.336;2024-01-30T04:05:41;2.00;99.90
12384;DHT22;6256;63.808;20.336;2024-01-30T04:08:07;2.10;99.90
12384;DHT22;6256;63.808;20.336;2024-01-30T04:10:33;2.10;99.90
12384;DHT22;6256;63.808;20.336;2024-01-30T04:12:59;2.00;99.90
12384;DHT22;6256;63.808;20.336;2024-01-30T04:15:25;2.00;99.90
12384;DHT22;6256;63.808;20.336;2024-01-30T04:17:51;2.10;99.90
12384;DHT22;6256;63.808;20.336;2024-01-30T04:20:17;2.20;99.90
12384;DHT22;6256;63.808;20.336;2024-01-30T04:22:46;2.30;99.90
12384;DHT22;6256;63.808;20.336;2024-01-30T04:25:12;2.20;99.90
12384;DHT22;6256;63.808;20.336;2024-01-30T04:27:38;2.40;99.90
12384;DHT22;6256;63.808;20.336;2024-01-30T04:30:04;2.40;99.90
12384;DHT22;6256;63.808;20.336;2024-01-30T04:32:30;2.30;99.90
12384;DHT22;6256;63.808;20.336;2024-01-30T04:34:56;2.40;99.90
12384;DHT22;6256;63.808;20.336;2024-01-30T04:37:21;2.30;99.90
12384;DHT22;6256;63.808;20.336;2024-01-30T04:39:47;2.20;99.90
12384;DHT22;6256;63.808;20.336;2024-01-30T04:42:13;2.10;99.90
12384;DHT22;6256;63.808;20.336;2024-01-30T04:44:38;2.20;99.90
12384;DHT22;6256;63.808;20.336;2024-01-30T04:47:04;2.20;99.90
12384;DHT22;6256;63.808;20.336;2024-01-30T04:49:31;2.00;99.90
12384;DHT22;6256;63.808;20.336;2024-01-30T04:51:57;2.10;99.90
12384;DHT22;6256;63.808;20.336;2024-01-30T04:54:24;2.20;99.90
12384;DHT22;6256;63.808;20.336;2024-01-30T04:56:49;2.20;99.90
12384;DHT22;6256;63.808;20.336;2024-01-30T04:59:15;2.10;99.90
12384;DHT22;6256;63.808;20.336;2024-01-30T05:01:41;2.10;99.90
12384;DHT22;6256;63.808;20.336;2024-01-30T05:04:09;2.00;99.90
12384;DHT22;6256;63.808;20.336;2024-01-30T05:06:35;1.90;99.90
12384;DHT22;6256;63.808;20.336;2024-01-30T05:09:01;1.80;99.90
12384;DHT22;6256;63.808;20.336;2024-01-30T05:11:26;1.70;99.90
12384;DHT22;6256;63.808;20.336;2024-01-30T05:13:52;1.80;99.90
12384;DHT22;6256;63.808;20.336;2024-01-30T05:16:18;1.70;99.90
12384;DHT22;6256;63.808;20.336;2024-01-30T05:18:43;1.70;99.90
12384;DHT22;6256;63.808;20.336;2024-01-30T05:21:10;1.70;99.90
12384;DHT22;6256;63.808;20.336;2024-01-30T05:23:36;1.70;99.90
12384;DHT22;6256;63.808;20.336;2024-01-30T05:26:01;1.70;99.90
12384;DHT22;6256;63.808;20.336;2024-01-30T05:28:29;1.60;99.90
12384;DHT22;6256;63.808;20.336;2024-01-30T05:30:56;1.50;99.90
12384;DHT22;6256;63.808;20.336;2024-01-30T05:33:21;1.40;99.90
12384;DHT22;6256;63.808;20.336;2024-01-30T05:35:47;1.40;99.90
12384;DHT22;6256;63.808;20.336;2024-01-30T05:38:15;1.40;99.90
12384;DHT22;6256;63.808;20.336;2024-01-30T05:40:41;1.40;99.90
12384;DHT22;6256;63.808;20.336;2024-01-30T05:43:06;1.40;99.90
12384;DHT22;6256;63.808;20.336;2024-01-30T05:45:33;1.30;99.90
12384;DHT22;6256;63.808;20.336;2024-01-30T05:48:00;1.40;99.90
12384;DHT22;6256;63.808;20.336;2024-01-30T05:50:26;1.30;99.90
12384;DHT22;6256;63.808;20.336;2024-01-30T05:52:52;1.40;99.90
12384;DHT22;6256;63.808;20.336;2024-01-30T05:55:18;1.40;99.90
12384;DHT22;6256;63.808;20.336;2024-01-30T05:57:43;1.40;99.90
12384;DHT22;6256;63.808;20.336;2024-01-30T06:00:09;1.40;99.90
12384;DHT22;6256;63.808;20.336;2024-01-30T06:02:35;1.50;99.90
12384;DHT22;6256;63.808;20.336;2024-01-30T06:05:01;1.40;99.90
12384;DHT22;6256;63.808;20.336;2024-01-30T06:07:27;1.40;99.90
12384;DHT22;6256;63.808;20.336;2024-01-30T06:09:53;1.50;99.90
12384;DHT22;6256;63.808;20.336;2024-01-30T06:12:18;1.40;99.90
12384;DHT22;6256;63.808;20.336;2024-01-30T06:14:44;1.40;99.90
12384;DHT22;6256;63.808;20.336;2024-01-30T06:17:10;1.30;99.90
12384;DHT22;6256;63.808;20.336;2024-01-30T06:19:39;1.20;99.90
12384;DHT22;6256;63.808;20.336;2024-01-30T06:22:05;1.10;99.90
12384;DHT22;6256;63.808;20.336;2024-01-30T06:24:31;1.00;99.90
12384;DHT22;6256;63.808;20.336;2024-01-30T06:26:56;1.00;99.90
12384;DHT22;6256;63.808;20.336;2024-01-30T06:29:22;0.90;99.90
12384;DHT22;6256;63.808;20.336;2024-01-30T06:31:50;0.80;99.90
12384;DHT22;6256;63.808;20.336;2024-01-30T06:34:16;0.70;99.90
12384;DHT22;6256;63.808;20.336;2024-01-30T06:36:41;0.70;99.90
12384;DHT22;6256;63.808;20.336;2024-01-30T06:39:07;0.70;99.90
12384;DHT22;6256;63.808;20.336;2024-01-30T06:41:33;0.60;99.90
12384;DHT22;6256;63.808;20.336;2024-01-30T06:43:59;0.50;99.90
12384;DHT22;6256;63.808;20.336;2024-01-30T06:46:25;0.50;99.90
12384;DHT22;6256;63.808;20.336;2024-01-30T06:48:51;0.50;99.90
12384;DHT22;6256;63.808;20.336;2024-01-30T06:51:17;0.50;99.90
12384;DHT22;6256;63.808;20.336;2024-01-30T06:53:42;0.50;99.90
12384;DHT22;6256;63.808;20.336;2024-01-30T06:56:08;0.50;99.90
12384;DHT22;6256;63.808;20.336;2024-01-30T06:58:34;0.50;99.90
12384;DHT22;6256;63.808;20.336;2024-01-30T07:00:59;0.50;99.90
12384;DHT22;6256;63.808;20.336;2024-01-30T07:03:25;0.40;99.90
12384;DHT22;6256;63.808;20.336;2024-01-30T07:05:51;0.40;99.90
12384;DHT22;6256;63.808;20.336;2024-01-30T07:08:17;0.30;99.90
12384;DHT22;6256;63.808;20.336;2024-01-30T07:10:43;0.30;99.90
12384;DHT22;6256;63.808;20.336;2024-01-30T07:13:10;0.30;99.90
12384;DHT22;6256;63.808;20.336;2024-01-30T07:15:35;0.20;99.90
12384;DHT22;6256;63.808;20.336;2024-01-30T07:18:03;0.10;99.90
12384;DHT22;6256;63.808;20.336;2024-01-30T07:20:28;0.10;99.90
12384;DHT22;6256;63.808;20.336;2024-01-30T07:22:56;0.10;99.90
12384;DHT22;6256;63.808;20.336;2024-01-30T07:25:21;0.00;99.90
12384;DHT22;6256;63.808;20.336;2024-01-30T07:27:55;0.10;99.90
12384;DHT22;6256;63.808;20.336;2024-01-30T07:30:20;0.10;99.90
12384;DHT22;6256;63.808;20.336;2024-01-30T07:32:46;0.00;99.90
12384;DHT22;6256;63.808;20.336;2024-01-30T07:35:15;0.00;99.90
12384;DHT22;6256;63.808;20.336;2024-01-30T07:37:41;0.00;99.90
12384;DHT22;6256;63.808;20.336;2024-01-30T07:40:07;0.10;99.90
12384;DHT22;6256;63.808;20.336;2024-01-30T07:42:33;0.00;99.90
12384;DHT22;6256;63.808;20.336;2024-01-30T07:45:00;-0.10;99.90
12384;DHT22;6256;63.808;20.336;2024-01-30T07:47:26;-0.10;99.90
12384;DHT22;6256;63.808;20.336;2024-01-30T07:49:51;0.00;99.90
12384;DHT22;6256;63.808;20.336;2024-01-30T07:52:18;0.00;99.90
12384;DHT22;6256;63.808;20.336;2024-01-30T07:54:43;0.00;99.90
12384;DHT22;6256;63.808;20.336;2024-01-30T07:57:09;0.00;99.90
12384;DHT22;6256;63.808;20.336;2024-01-30T07:59:35;0.00;99.90
12384;DHT22;6256;63.808;20.336;2024-01-30T08:02:00;0.00;99.90
12384;DHT22;6256;63.808;20.336;2024-01-30T08:04:26;0.10;99.90
12384;DHT22;6256;63.808;20.336;2024-01-30T08:06:54;0.10;99.90
12384;DHT22;6256;63.808;20.336;2024-01-30T08:09:20;0.10;99.90
12384;DHT22;6256;63.808;20.336;2024-01-30T08:11:46;0.20;99.90
12384;DHT22;6256;63.808;20.336;2024-01-30T08:14:11;0.20;99.90
12384;DHT22;6256;63.808;20.336;2024-01-30T08:16:39;0.20;99.90
12384;DHT22;6256;63.808;20.336;2024-01-30T08:19:04;0.20;99.90
12384;DHT22;6256;63.808;20.336;2024-01-30T08:21:30;0.20;99.90
12384;DHT22;6256;63.808;20.336;2024-01-30T08:24:04;0.30;99.90
12384;DHT22;6256;63.808;20.336;2024-01-30T08:26:31;0.20;99.90
12384;DHT22;6256;63.808;20.336;2024-01-30T08:28:56;0.30;99.90
12384;DHT22;6256;63.808;20.336;2024-01-30T08:31:22;0.30;99.90
12384;DHT22;6256;63.808;20.336;2024-01-30T08:33:48;0.30;99.90
12384;DHT22;6256;63.808;20.336;2024-01-30T08:36:15;0.40;99.90
12384;DHT22;6256;63.808;20.336;2024-01-30T08:38:40;0.40;99.90
12384;DHT22;6256;63.808;20.336;2024-01-30T08:41:07;0.40;99.90
12384;DHT22;6256;63.808;20.336;2024-01-30T08:43:33;0.30;99.90
12384;DHT22;6256;63.808;20.336;2024-01-30T08:46:00;0.40;99.90
12384;DHT22;6256;63.808;20.336;2024-01-30T08:48:26;0.50;99.90
12384;DHT22;6256;63.808;20.336;2024-01-30T08:50:51;0.50;99.90
12384;DHT22;6256;63.808;20.336;2024-01-30T08:53:17;0.50;99.90
12384;DHT22;6256;63.808;20.336;2024-01-30T08:55:43;0.50;99.90
12384;DHT22;6256;63.808;20.336;2024-01-30T08:58:08;0.40;99.90
12384;DHT22;6256;63.808;20.336;2024-01-30T09:00:34;0.40;99.90
12384;DHT22;6256;63.808;20.336;2024-01-30T09:03:00;0.50;99.90
12384;DHT22;6256;63.808;20.336;2024-01-30T09:05:26;0.50;99.90
12384;DHT22;6256;63.808;20.336;2024-01-30T09:07:51;0.60;99.90
12384;DHT22;6256;63.808;20.336;2024-01-30T09:10:17;0.80;99.90
12384;DHT22;6256;63.808;20.336;2024-01-30T09:12:42;0.70;99.90
12384;DHT22;6256;63.808;20.336;2024-01-30T09:15:08;0.80;99.90
12384;DHT22;6256;63.808;20.336;2024-01-30T09:17:34;0.80;99.90
12384;DHT22;6256;63.808;20.336;2024-01-30T09:20:00;0.80;99.90
12384;DHT22;6256;63.808;20.336;2024-01-30T09:22:26;0.80;99.90
12384;DHT22;6256;63.808;20.336;2024-01-30T09:24:51;1.00;99.90
12384;DHT22;6256;63.808;20.336;2024-01-30T09:27:17;1.00;99.90
12384;DHT22;6256;63.808;20.336;2024-01-30T09:29:43;1.00;99.90
12384;DHT22;6256;63.808;20.336;2024-01-30T09:32:08;1.00;99.90
12384;DHT22;6256;63.808;20.336;2024-01-30T09:34:34;1.00;99.90
12384;DHT22;6256;63.808;20.336;2024-01-30T09:37:00;1.10;99.90
12384;DHT22;6256;63.808;20.336;2024-01-30T09:39:26;1.10;99.90
12384;DHT22;6256;63.808;20.336;2024-01-30T09:42:02;1.20;99.90
12384;DHT22;6256;63.808;20.336;2024-01-30T09:44:30;1.20;99.90
12384;DHT22;6256;63.808;20.336;2024-01-30T09:46:57;1.30;99.90
12384;DHT22;6256;63.808;20.336;2024-01-30T09:49:31;1.30;99.90
12384;DHT22;6256;63.808;20.336;2024-01-30T09:51:57;1.40;99.90
12384;DHT22;6256;63.808;20.336;2024-01-30T09:54:23;1.40;99.90
12384;DHT22;6256;63.808;20.336;2024-01-30T09:56:49;1.50;99.90
12384;DHT22;6256;63.808;20.336;2024-01-30T09:59:15;1.60;99.90
12384;DHT22;6256;63.808;20.336;2024-01-30T10:01:41;1.60;99.90
12384;DHT22;6256;63.808;20.336;2024-01-30T10:04:07;1.80;99.90
12384;DHT22;6256;63.808;20.336;2024-01-30T10:06:34;1.80;99.90
12384;DHT22;6256;63.808;20.336;2024-01-30T10:08:59;1.80;99.90
12384;DHT22;6256;63.808;20.336;2024-01-30T10:11:25;1.90;99.90
12384;DHT22;6256;63.808;20.336;2024-01-30T10:13:51;1.90;99.90
12384;DHT22;6256;63.808;20.336;2024-01-30T10:16:16;2.00;99.90
12384;DHT22;6256;63.808;20.336;2024-01-30T10:18:42;2.20;99.90
12384;DHT22;6256;63.808;20.336;2024-01-30T10:21:08;2.30;99.90
12384;DHT22;6256;63.808;20.336;2024-01-30T10:23:35;2.40;99.90
12384;DHT22;6256;63.808;20.336;2024-01-30T10:26:03;2.50;99.90
12384;DHT22;6256;63.808;20.336;2024-01-30T10:28:29;2.60;99.90
12384;DHT22;6256;63.808;20.336;2024-01-30T10:30:59;2.60;99.90
12384;DHT22;6256;63.808;20.336;2024-01-30T10:33:26;2.50;99.90
12384;DHT22;6256;63.808;20.336;2024-01-30T10:35:59;2.50;99.90
12384;DHT22;6256;63.808;20.336;2024-01-30T10:38:28;2.50;99.90
12384;DHT22;6256;63.808;20.336;2024-01-30T10:40:57;2.50;99.90
12384;DHT22;6256;63.808;20.336;2024-01-30T10:43:28;2.40;99.90
12384;DHT22;6256;63.808;20.336;2024-01-30T10:45:57;2.40;99.90
12384;DHT22;6256;63.808;20.336;2024-01-30T10:48:30;2.40;99.90
12384;DHT22;6256;63.808;20.336;2024-01-30T10:50:59;2.40;99.90
12384;DHT22;6256;63.808;20.336;2024-01-30T10:53:26;2.40;99.90
12384;DHT22;6256;63.808;20.336;2024-01-30T10:55:53;2.40;99.90
12384;DHT22;6256;63.808;20.336;2024-01-30T10:58:20;2.40;99.90
12384;DHT22;6256;63.808;20.336;2024-01-30T11:00:47;2.50;99.90
12384;DHT22;6256;63.808;20.336;2024-01-30T11:03:13;2.50;99.90
12384;DHT22;6256;63.808;20.336;2024-01-30T11:05:40;2.70;99.90
12384;DHT22;6256;63.808;20.336;2024-01-30T11:08:15;2.80;99.90
12384;DHT22;6256;63.808;20.336;2024-01-30T11:10:48;2.90;99.90
12384;DHT22;6256;63.808;20.336;2024-01-30T11:13:14;3.20;99.90
12384;DHT22;6256;63.808;20.336;2024-01-30T11:15:40;3.70;99.90
12384;DHT22;6256;63.808;20.336;2024-01-30T11:18:06;4.10;99.90
12384;DHT22;6256;63.808;20.336;2024-01-30T11:20:32;4.40;99.90
12384;DHT22;6256;63.808;20.336;2024-01-30T11:22:59;4.70;99.90
12384;DHT22;6256;63.808;20.336;2024-01-30T11:25:25;4.80;99.90
12384;DHT22;6256;63.808;20.336;2024-01-30T11:27:54;4.80;99.90
12384;DHT22;6256;63.808;20.336;2024-01-30T11:30:31;5.00;99.90
12384;DHT22;6256;63.808;20.336;2024-01-30T11:35:39;5.50;99.90
12384;DHT22;6256;63.808;20.336;2024-01-30T11:38:06;5.70;99.90
12384;DHT22;6256;63.808;20.336;2024-01-30T11:40:33;5.80;99.90
12384;DHT22;6256;63.808;20.336;2024-01-30T11:43:01;5.80;99.90
12384;DHT22;6256;63.808;20.336;2024-01-30T11:45:29;6.00;99.90
12384;DHT22;6256;63.808;20.336;2024-01-30T11:47:55;6.00;99.90
12384;DHT22;6256;63.808;20.336;2024-01-30T11:50:22;6.10;99.90
12384;DHT22;6256;63.808;20.336;2024-01-30T11:52:48;6.10;99.90
12384;DHT22;6256;63.808;20.336;2024-01-30T11:55:15;6.10;99.90
12384;DHT22;6256;63.808;20.336;2024-01-30T11:57:41;5.90;99.90
12384;DHT22;6256;63.808;20.336;2024-01-30T12:00:14;5.70;99.90
12384;DHT22;6256;63.808;20.336;2024-01-30T12:02:41;5.30;99.90
12384;DHT22;6256;63.808;20.336;2024-01-30T12:05:07;5.00;99.90
12384;DHT22;6256;63.808;20.336;2024-01-30T12:07:33;4.90;99.90
12384;DHT22;6256;63.808;20.336;2024-01-30T12:09:59;4.60;99.90
12384;DHT22;6256;63.808;20.336;2024-01-30T12:12:26;4.50;99.90
12384;DHT22;6256;63.808;20.336;2024-01-30T12:14:56;4.40;99.90
12384;DHT22;6256;63.808;20.336;2024-01-30T12:20:06;4.10;99.90
12384;DHT22;6256;63.808;20.336;2024-01-30T12:22:52;4.00;99.90
12384;DHT22;6256;63.808;20.336;2024-01-30T12:25:20;3.90;99.90
12384;DHT22;6256;63.808;20.336;2024-01-30T12:27:48;3.80;99.90
12384;DHT22;6256;63.808;20.336;2024-01-30T12:30:18;3.80;99.90
12384;DHT22;6256;63.808;20.336;2024-01-30T12:32:46;3.70;99.90
12384;DHT22;6256;63.808;20.336;2024-01-30T12:35:20;3.60;99.90
12384;DHT22;6256;63.808;20.336;2024-01-30T12:37:47;3.50;99.90
12384;DHT22;6256;63.808;20.336;2024-01-30T12:40:14;3.50;99.90
12384;DHT22;6256;63.808;20.336;2024-01-30T12:42:40;3.40;99.90
12384;DHT22;6256;63.808;20.336;2024-01-30T12:45:08;3.40;99.90
12384;DHT22;6256;63.808;20.336;2024-01-30T12:47:34;3.30;99.90
12384;DHT22;6256;63.808;20.336;2024-01-30T12:50:00;3.20;99.90
12384;DHT22;6256;63.808;20.336;2024-01-30T12:52:26;3.20;99.90
12384;DHT22;6256;63.808;20.336;2024-01-30T12:54:52;3.10;99.90
12384;DHT22;6256;63.808;20.336;2024-01-30T12:57:18;3.10;99.90
12384;DHT22;6256;63.808;20.336;2024-01-30T12:59:44;2.90;99.90
12384;DHT22;6256;63.808;20.336;2024-01-30T13:02:11;2.80;99.90
12384;DHT22;6256;63.808;20.336;2024-01-30T13:04:37;2.80;99.90
12384;DHT22;6256;63.808;20.336;2024-01-30T13:07:03;2.70;99.90
12384;DHT22;6256;63.808;20.336;2024-01-30T13:09:32;2.70;99.90
12384;DHT22;6256;63.808;20.336;2024-01-30T13:11:58;2.50;99.90
12384;DHT22;6256;63.808;20.336;2024-01-30T13:14:25;2.40;99.90
12384;DHT22;6256;63.808;20.336;2024-01-30T13:16:51;2.40;99.90
12384;DHT22;6256;63.808;20.336;2024-01-30T13:19:17;2.30;99.90
12384;DHT22;6256;63.808;20.336;2024-01-30T13:21:42;2.30;99.90
12384;DHT22;6256;63.808;20.336;2024-01-30T13:24:08;2.20;99.90
12384;DHT22;6256;63.808;20.336;2024-01-30T13:26:35;2.20;99.90
12384;DHT22;6256;63.808;20.336;2024-01-30T13:29:01;2.10;99.90
12384;DHT22;6256;63.808;20.336;2024-01-30T13:31:27;2.00;99.90
12384;DHT22;6256;63.808;20.336;2024-01-30T13:33:53;1.90;99.90
12384;DHT22;6256;63.808;20.336;2024-01-30T13:36:19;1.90;99.90
12384;DHT22;6256;63.808;20.336;2024-01-30T13:38:46;1.80;99.90
12384;DHT22;6256;63.808;20.336;2024-01-30T13:41:12;1.70;99.90
12384;DHT22;6256;63.808;20.336;2024-01-30T13:43:37;1.60;99.90
12384;DHT22;6256;63.808;20.336;2024-01-30T13:46:03;1.60;99.90
12384;DHT22;6256;63.808;20.336;2024-01-30T13:48:31;1.50;99.90
12384;DHT22;6256;63.808;20.336;2024-01-30T13:50:56;1.50;99.90
12384;DHT22;6256;63.808;20.336;2024-01-30T13:53:22;1.40;99.90
12384;DHT22;6256;63.808;20.336;2024-01-30T13:55:47;1.40;99.90
12384;DHT22;6256;63.808;20.336;2024-01-30T13:58:13;1.30;99.90
12384;DHT22;6256;63.808;20.336;2024-01-30T14:00:39;1.20;99.90
12384;DHT22;6256;63.808;20.336;2024-01-30T14:03:04;1.10;99.90
12384;DHT22;6256;63.808;20.336;2024-01-30T14:05:31;1.10;99.90
12384;DHT22;6256;63.808;20.336;2024-01-30T14:07:58;1.00;99.90
12384;DHT22;6256;63.808;20.336;2024-01-30T14:10:25;0.90;99.90
12384;DHT22;6256;63.808;20.336;2024-01-30T14:12:51;0.80;99.90
12384;DHT22;6256;63.808;20.336;2024-01-30T14:15:17;0.80;99.90
12384;DHT22;6256;63.808;20.336;2024-01-30T14:17:46;0.70;99.90
12384;DHT22;6256;63.808;20.336;2024-01-30T14:20:14;0.70;99.90
12384;DHT22;6256;63.808;20.336;2024-01-30T14:22:42;0.60;99.90
12384;DHT22;6256;63.808;20.336;2024-01-30T14:25:08;0.60;99.90
12384;DHT22;6256;63.808;20.336;2024-01-30T14:27:35;0.50;99.90
12384;DHT22;6256;63.808;20.336;2024-01-30T14:30:00;0.50;99.90
12384;DHT22;6256;63.808;20.336;2024-01-30T14:32:26;0.40;99.90
12384;DHT22;6256;63.808;20.336;2024-01-30T14:34:52;0.30;99.90
12384;DHT22;6256;63.808;20.336;2024-01-30T14:37:21;0.20;99.90
12384;DHT22;6256;63.808;20.336;2024-01-30T14:39:47;0.10;99.90
12384;DHT22;6256;63.808;20.336;2024-01-30T14:42:16;0.00;99.90
12384;DHT22;6256;63.808;20.336;2024-01-30T14:44:42;0.00;99.90
12384;DHT22;6256;63.808;20.336;2024-01-30T14:47:08;0.00;99.90
12384;DHT22;6256;63.808;20.336;2024-01-30T14:49:34;0.00;99.90
12384;DHT22;6256;63.808;20.336;2024-01-30T14:51:59;-0.10;99.90
12384;DHT22;6256;63.808;20.336;2024-01-30T14:54:26;-0.10;99.90
12384;DHT22;6256;63.808;20.336;2024-01-30T14:56:52;-0.20;99.90
12384;DHT22;6256;63.808;20.336;2024-01-30T14:59:18;-0.20;99.90
12384;DHT22;6256;63.808;20.336;2024-01-30T15:01:44;-0.20;99.90
12384;DHT22;6256;63.808;20.336;2024-01-30T15:04:10;-0.30;99.90
12384;DHT22;6256;63.808;20.336;2024-01-30T15:06:36;-0.30;99.90
12384;DHT22;6256;63.808;20.336;2024-01-30T15:09:03;-0.20;99.90
12384;DHT22;6256;63.808;20.336;2024-01-30T15:11:28;-0.30;99.90
12384;DHT22;6256;63.808;20.336;2024-01-30T15:13:54;-0.30;99.90
12384;DHT22;6256;63.808;20.336;2024-01-30T15:16:20;-0.20;99.90
12384;DHT22;6256;63.808;20.336;2024-01-30T15:18:45;-0.30;99.90
12384;DHT22;6256;63.808;20.336;2024-01-30T15:21:11;-0.30;99.90
12384;DHT22;6256;63.808;20.336;2024-01-30T15:23:39;-0.40;99.90
12384;DHT22;6256;63.808;20.336;2024-01-30T15:26:05;-0.50;99.90
12384;DHT22;6256;63.808;20.336;2024-01-30T15:28:39;-0.50;99.90
12384;DHT22;6256;63.808;20.336;2024-01-30T15:31:05;-0.60;99.90
12384;DHT22;6256;63.808;20.336;2024-01-30T15:33:32;-0.60;99.90
12384;DHT22;6256;63.808;20.336;2024-01-30T15:36:01;-0.60;99.90
12384;DHT22;6256;63.808;20.336;2024-01-30T15:38:27;-0.60;99.90
12384;DHT22;6256;63.808;20.336;2024-01-30T15:40:53;-0.60;99.90
12384;DHT22;6256;63.808;20.336;2024-01-30T15:43:19;-0.70;99.90
12384;DHT22;6256;63.808;20.336;2024-01-30T15:45:44;-0.70;99.90